EST,Max TemperatureF,Mean TemperatureF,Min TemperatureF,Max Dew PointF,MeanDew PointF,Min DewpointF,Max Humidity, Mean Humidity, Min Humidity, Max Sea Level PressureIn, Mean Sea Level PressureIn, Min Sea Level PressureIn, Max VisibilityMiles, Mean VisibilityMiles, Min VisibilityMiles, Max Wind SpeedMPH, Mean Wind SpeedMPH, Max Gust SpeedMPH,PrecipitationIn, CloudCover, Events, WindDirDegrees
2011-11-1,56,43,30,38,32,26,89,68,47,30.35,30.31,30.28,10,8,2,10,1,13,0.00,3,,214
2011-11-2,64,46,28,38,33,25,92,63,34,30.32,30.22,30.06,10,8,6,18,7,23,0.00,0,,203
2011-11-3,59,49,38,43,39,35,89,68,47,30.08,30.00,29.95,10,9,0,17,7,24,0.04,6,Rain,287
2011-11-4,43,34,25,34,27,22,100,73,46,30.40,30.24,30.06,10,10,10,16,6,22,0.00,3,,328
2011-11-5,47,34,21,27,21,17,92,76,59,30.51,30.46,30.40,10,10,10,4,0,,0.00,0,,180
2011-11-6,57,39,21,28,21,17,88,56,24,30.40,30.32,30.23,10,10,10,17,4,24,0.00,0,,223
2011-11-7,62,46,29,45,36,23,85,64,43,30.23,30.17,30.10,10,10,10,23,12,29,0.00,2,,218
2011-11-8,59,50,41,47,42,34,96,67,37,30.27,30.23,30.16,10,5,0,9,5,15,0.00,3,Fog,232
2011-11-9,65,51,37,45,40,34,89,69,48,30.15,29.99,29.80,10,9,6,13,3,16,0.00,0,,52
2011-11-10,60,50,39,45,37,33,89,68,46,29.89,29.82,29.73,10,10,8,16,9,26,T,6,Rain,222
2011-11-11,42,35,27,33,27,20,92,72,52,29.86,29.69,29.62,10,9,1,22,9,30,0.00,4,,258
2011-11-12,49,40,31,37,30,21,76,59,42,29.95,29.88,29.82,10,10,10,24,10,32,0.00,6,,215
2011-11-13,63,46,29,35,31,25,89,60,30,29.95,29.83,29.67,10,10,10,21,7,28,0.00,4,,196
2011-11-14,67,59,51,54,49,38,93,65,36,29.65,29.60,29.55,10,7,0,28,11,39,0.30,6,Fog-Rain,228
2011-11-15,56,46,35,49,42,33,93,77,61,29.89,29.75,29.54,10,7,1,17,7,22,0.04,3,Rain,237
2011-11-16,59,45,31,47,36,25,96,73,50,29.87,29.80,29.69,10,7,0,23,8,32,0.00,3,Fog,232
2011-11-17,43,35,26,33,28,23,89,70,51,29.92,29.86,29.82,10,9,1,17,6,22,0.01,3,Snow,232
2011-11-18,42,34,25,28,24,20,85,67,48,30.25,30.18,29.96,10,10,10,18,10,24,0.00,4,,225
2011-11-19,56,47,38,28,21,17,48,37,26,30.16,30.08,29.94,10,10,10,21,11,28,T,6,Rain,212
2011-11-20,57,45,32,48,35,20,83,62,41,30.32,30.00,29.78,10,9,2,29,13,37,0.15,8,Rain,272
2011-11-21,34,26,17,19,17,13,84,70,56,30.48,30.42,30.34,10,10,10,13,2,15,0.00,2,,2
2011-11-22,34,24,13,22,16,10,88,68,47,30.51,30.38,30.13,10,10,7,18,5,23,0.00,1,,62
2011-11-23,32,31,29,28,27,21,92,73,54,30.12,29.98,29.88,10,3,0,23,10,31,0.22,8,Fog-Snow,40
2011-11-24,44,36,28,38,31,26,92,86,79,30.12,30.09,30.03,10,8,3,15,7,20,0.00,7,,218
2011-11-25,55,49,43,41,38,35,83,67,50,30.01,29.97,29.91,10,8,6,25,14,35,0.00,4,,226
2011-11-26,54,46,38,42,39,35,89,75,61,30.17,30.11,30.00,10,10,6,13,5,16,0.00,4,,96
2011-11-27,62,50,38,50,40,34,85,67,48,30.10,29.96,29.86,10,10,10,28,8,38,T,6,Rain,101
2011-11-28,58,47,36,52,44,34,92,84,76,30.16,30.02,29.84,10,9,4,25,8,32,0.19,8,Rain,255
2011-11-29,43,42,40,41,39,36,93,86,79,30.06,29.89,29.56,10,5,2,18,10,24,0.36,8,Rain,51
2011-11-30,47,38,29,43,35,20,96,81,66,30.03,29.59,29.39,10,8,2,24,14,32,0.20,7,Rain-Snow,238